AirNav   Air Wisconsin Up To $57,000 Bonus
 
 587 users online  

SC94 Weaver Field Airport
Johnsonville, South Carolina, USA

GOING TO JOHNSONVILLE?


FAA INFORMATION EFFECTIVE 03 NOVEMBER 2022

Location

FAA Identifier: SC94
Lat/Long: 33-53-22.0000N 079-30-23.0000W
33-53.366667N 079-30.383333W
33.8894444,-79.5063889
(estimated)
Elevation: 75 ft. / 23 m (estimated)
From city: 7 miles NW of JOHNSONVILLE, SC
Time zone: UTC -5 (UTC -4 during Daylight Saving Time)
Zip code: 29555

Airport Operations

Airport use: Private use. Permission required prior to landing
Activation date: 02/2003
Control tower: no
ARTCC: JACKSONVILLE CENTER
FSS: ANDERSON FLIGHT SERVICE STATION
Attendance: UNATNDD
Segmented circle: no

Airport Communications

WX AWOS-3 at MAO (19 nm NE): 119.875 (843-423-4231)
WX AWOS-3 at HYW (19 nm E): 119.525 (843-397-8046)
  • 122.9

Nearby radio navigation aids

VOR radial/distance  VOR name  Freq  Var
FLOr163/21.9FLORENCE VORTAC115.2003W
CREr280/39.2GRAND STRAND VORTAC114.4003W

 
NDB name  Hdg/Dist  Freq  Var  ID
EVANS087/13.142006WCFY -.-. ..-. -.--
HORRY290/19.337008WHYW .... -.-- .--
ANDREWS008/26.325506WPHH .--. .... ....
DILLON200/34.327409WDLC -.. .-.. -.-.
DARLINGTON156/38.224506WUDG ..- -.. --.
MANNING069/39.338106WMNI -- -. ..

Airport Services

Fuel available: 100LL
100LL:CALL 843-601-1405

Runway Information

Runway 4/22

Dimensions: 2660 x 110 ft. / 811 x 34 m
Surface: turf
Runway edge lights: low intensity
W REDL - WITH G REDL AT EACH END OF RWY. - RWY LIGHT SPACING EVERY 400 FT. (RWY LGTS ARE OTS)
RUNWAY 4  RUNWAY 22
Traffic pattern: leftleft
Obstructions: nonetrees, 600 ft. from runway

Airport Ownership and Management from official FAA records

Ownership: Privately-owned
Owner: LYNIEL DEAN WEAVER JR
221 EAST SALEM ROAD
JOHNSONVILLE, SC 29555
Phone (843) 601-1405
Manager: WEAVER AVIATION LLC
221 EAST SALEM ROAD
JOHNSONVILLE, SC 29555
Phone 843-601-1405

Airport Operational Statistics

Aircraft based on the field: 1
Single engine airplanes: 1
    

Additional Remarks

TWR 1 NM NE OF ARPT.
POWELINES ON SHORT FINAL TO RWY 22; POWER LINES AT END OF RUNWAY.
TWR LOCATED APPR 1 NM W NW OF ARPT.
FOR MORE ARPT INFO CALL 843-601-1405.
FOR CD CTC FLORENCE APCH AT 843-669-5194, WHEN APCH CLSD CTC JACKSONVILLE ARTCC AT 904-845-1592.

Instrument Procedures

There are no published instrument procedures at SC94.

Some nearby airports with instrument procedures:

51J - Lake City Municipal Airport-CJ Evans Field (13 nm W)
KMAO - Marion County Airport (19 nm NE)
KHYW - Conway-Horry County Airport (19 nm E)
KCKI - Williamsburg Regional Airport (20 nm SW)
KFLO - Florence Regional Airport (21 nm NW)
 
Loc | Ops | Rwys | IFR | FBO | Links
Com | Nav | Svcs | Stats | Notes
Area around SC94 (Weaver Field Airport)
 
Road maps at: MapQuest Bing Google
 
Aerial photo
No photo
 
Sectional chart

 
Airport distance calculator
Flying to Weaver Field Airport? Find the distance to fly.

From to SC94

Sunrise and sunset
Times for 29-Nov-2022
 Local
(UTC-5)
 Zulu
(UTC)
Morning civil twilight06:3711:37
Sunrise07:0412:04
Sunset17:0822:08
Evening civil twilight17:3622:36

Current date and time
Zulu (UTC)  29-Nov-2022 09:28:53
Local (UTC-5)  29-Nov-2022 04:28:53
 
METAR
KMAO 
19nm NE 
290915Z AUTO 05004KT 10SM CLR 08/03 A3013 RMK AO2
KHYW 
19nm E 
290915Z AUTO 00000KT 10SM CLR 05/05 A3013 RMK AO2
KCKI 
20nm SW 
290915Z AUTO 00000KT 10SM CLR 07/05 A3013 RMK AO2
KFLO 
21nm NW 
290853Z 06004KT 10SM CLR 08/05 A3013 RMK AO2 SLP202 T00830050 51006
KMYR 
32nm SE 
290856Z AUTO 03005KT 10SM CLR 11/06 A3012 RMK AO2 SLP200 T01060061 50005
KGGE 
36nm S 
290915Z AUTO 04003KT 10SM CLR 08/07 A3012 RMK AO2
KUDG 
38nm NW 
290856Z AUTO 36003KT 10SM CLR 06/06 A3015 RMK AO2 SLP210 6//// T00560056 52007 PNO $
TAF
KFLO 
21nm NW 
290520Z 2906/3006 05004KT P6SM SKC FM291500 11006KT P6SM SKC FM300300 09005KT P6SM BKN150
NOTAMs
Click for the latest NOTAMs
NOTAMs are issued by the DoD/FAA and will open in a separate window not controlled by AirNav.

 

 
 

Would you like to see your business listed on this page?

 If your business provides an interesting product or service to pilots, flight crews, aircraft, or users of the Weaver Field Airport, you should consider listing it here.  To start the listing process, click on the button below
 
Add a business
 

Other Pages about Weaver Field Airport

Update a link
 
Copyright © AirNav, LLC. All rights reserved. Privacy Policy  Contact